Time;durP1;ratioP1;P1;durP2;ratioP2;P2;SDS_P1;SDS_P2;PMS_P1;PMS_P2;Temp;Humidity;BMP_temperature;BMP_pressure;BME280_temperature;BME280_humidity;BME280_pressure;Samples;Min_cycle;Max_cycle;Signal;HPM_P1;HPM_P2
2022/06/12 00:00:13;;;;;;;10.90;4.00;;;22.10;69.40;;;;;;5097355;28;20452;-69
2022/06/12 00:02:40;;;;;;;10.80;3.80;;;22.10;69.50;;;;;;5096732;28;20463;-68
2022/06/12 00:05:07;;;;;;;5.70;3.50;;;22.00;69.80;;;;;;5097758;28;20450;-69
2022/06/12 00:07:35;;;;;;;8.57;4.00;;;22.00;70.10;;;;;;5098155;28;20453;-69
2022/06/12 00:10:02;;;;;;;8.43;3.70;;;21.90;70.20;;;;;;5097880;28;20852;-69
2022/06/12 00:12:29;;;;;;;10.47;4.57;;;21.90;70.40;;;;;;5096351;28;20828;-69
2022/06/12 00:14:55;;;;;;;11.57;4.27;;;21.80;70.50;;;;;;5096296;28;20526;-69
2022/06/12 00:17:22;;;;;;;10.93;5.07;;;21.80;70.50;;;;;;5095927;28;20447;-69
2022/06/12 00:19:50;;;;;;;8.10;4.00;;;21.70;70.50;;;;;;5096309;28;20816;-68
2022/06/12 00:22:18;;;;;;;6.40;3.50;;;21.70;70.50;;;;;;5096154;28;20567;-69
2022/06/12 00:24:46;;;;;;;7.70;4.57;;;21.60;70.60;;;;;;5096145;28;20450;-69
2022/06/12 00:27:14;;;;;;;6.87;4.30;;;21.60;70.70;;;;;;5096146;28;20439;-69
2022/06/12 00:29:42;;;;;;;9.87;4.17;;;21.60;70.70;;;;;;5095656;28;20528;-69
2022/06/12 00:32:12;;;;;;;10.07;3.90;;;21.50;70.90;;;;;;5095911;28;20463;-69
2022/06/12 00:34:42;;;;;;;8.83;4.00;;;21.50;70.90;;;;;;5095552;28;21035;-69
2022/06/12 00:37:10;;;;;;;10.67;4.03;;;21.40;71.00;;;;;;5095934;28;20442;-69
2022/06/12 00:39:36;;;;;;;6.70;3.43;;;21.40;70.90;;;;;;5096044;28;20435;-69
2022/06/12 00:42:07;;;;;;;6.60;3.80;;;21.30;70.30;;;;;;5095948;28;20472;-69
2022/06/12 00:44:39;;;;;;;9.40;4.10;;;21.10;70.30;;;;;;5096080;28;20448;-69
2022/06/12 00:47:08;;;;;;;10.30;4.23;;;21.00;71.10;;;;;;5096057;28;20432;-69
2022/06/12 00:49:37;;;;;;;5.77;3.53;;;21.00;71.70;;;;;;5095938;28;20820;-69
2022/06/12 00:52:09;;;;;;;10.07;4.30;;;21.00;71.80;;;;;;5095762;28;20464;-69
2022/06/12 00:54:38;;;;;;;11.23;4.83;;;21.00;71.70;;;;;;5096239;28;20432;-69
2022/06/12 00:57:08;;;;;;;10.03;3.63;;;21.00;72.60;;;;;;5096618;28;20444;-69
2022/06/12 00:59:38;;;;;;;6.43;3.60;;;20.90;71.40;;;;;;5095511;28;20840;-69
2022/06/12 01:02:06;;;;;;;18.30;3.90;;;20.90;71.70;;;;;;5096297;28;20463;-69
2022/06/12 01:07:22;;;;;;;8.20;3.43;;;20.80;71.90;;;;;;5095430;28;20415;-69
2022/06/12 01:09:52;;;;;;;8.10;3.90;;;20.80;72.20;;;;;;5095423;28;20459;-69
2022/06/12 01:12:24;;;;;;;8.10;4.30;;;20.70;72.10;;;;;;5095113;28;20468;-69
2022/06/12 01:14:55;;;;;;;10.73;4.00;;;20.70;72.00;;;;;;5095380;28;20438;-69
2022/06/12 01:17:24;;;;;;;9.43;3.53;;;20.70;72.00;;;;;;5095119;28;20429;-69
2022/06/12 01:19:54;;;;;;;5.90;3.60;;;20.60;71.70;;;;;;5095028;28;20440;-69
2022/06/12 01:22:56;;;;;;;9.43;4.63;;;20.50;71.90;;;;;;5094982;28;20467;-70
2022/06/12 01:25:54;;;;;;;9.60;3.60;;;20.50;72.30;;;;;;5094665;28;20949;-70
2022/06/12 01:28:45;;;;;;;9.07;4.27;;;20.40;72.20;;;;;;5094828;28;20424;-71
2022/06/12 01:31:35;;;;;;;6.67;3.57;;;20.30;72.30;;;;;;5094450;28;20895;-71
2022/06/12 01:34:15;;;;;;;7.73;4.03;;;20.30;72.60;;;;;;5094556;28;20456;-71
2022/06/12 01:36:49;;;;;;;11.40;4.37;;;20.20;73.00;;;;;;5094774;28;20419;-71
2022/06/12 01:39:24;;;;;;;10.40;4.07;;;20.20;73.30;;;;;;5094663;28;20431;-71
2022/06/12 01:41:56;;;;;;;5.83;4.30;;;20.10;73.30;;;;;;5094569;28;20455;-71
2022/06/12 01:44:38;;;;;;;9.67;3.33;;;20.00;73.10;;;;;;5094764;28;20420;-71
2022/06/12 01:47:13;;;;;;;14.70;3.60;;;19.90;73.30;;;;;;5094590;28;20785;-71
2022/06/12 01:49:45;;;;;;;8.97;4.10;;;19.90;74.10;;;;;;5094441;28;20473;-71
2022/06/12 01:52:22;;;;;;;10.87;4.43;;;19.90;74.90;;;;;;5094421;28;20464;-70
2022/06/12 01:54:57;;;;;;;4.93;3.80;;;19.80;73.70;;;;;;5094576;28;20531;-70
2022/06/12 01:57:32;;;;;;;10.53;3.60;;;19.80;74.00;;;;;;5094466;28;20431;-70
2022/06/12 02:00:06;;;;;;;10.30;4.60;;;19.70;75.30;;;;;;5094375;28;20428;-70
2022/06/12 02:02:38;;;;;;;9.53;3.77;;;19.60;74.60;;;;;;5094705;28;20995;-70
2022/06/12 02:05:11;;;;;;;10.17;6.20;;;19.60;74.60;;;;;;5094263;28;20432;-70
2022/06/12 02:07:42;;;;;;;8.10;3.87;;;19.60;74.60;;;;;;5094242;28;20428;-71
2022/06/12 02:10:16;;;;;;;9.20;4.30;;;19.50;74.70;;;;;;5094147;28;20464;-71
2022/06/12 02:15:39;;;;;;;7.77;3.80;;;19.50;75.30;;;;;;5094024;28;20462;-71
2022/06/12 02:18:15;;;;;;;9.10;4.13;;;19.40;75.10;;;;;;5093831;28;20768;-71
2022/06/12 02:20:48;;;;;;;9.13;4.63;;;19.30;75.20;;;;;;5093738;28;20901;-71
2022/06/12 02:23:21;;;;;;;7.47;3.33;;;19.30;75.30;;;;;;5093667;28;20424;-71
2022/06/12 02:25:52;;;;;;;12.70;5.00;;;19.30;75.10;;;;;;5094131;28;20425;-71
2022/06/12 02:28:22;;;;;;;12.83;3.83;;;19.20;74.90;;;;;;5093618;28;20927;-70
2022/06/12 02:30:53;;;;;;;6.60;4.13;;;19.10;74.80;;;;;;5094101;28;20480;-70
2022/06/12 02:33:23;;;;;;;6.50;3.50;;;19.20;75.30;;;;;;5093892;28;20432;-70
2022/06/12 02:35:53;;;;;;;9.50;4.30;;;19.10;75.30;;;;;;5093559;28;20424;-70
2022/06/12 02:38:24;;;;;;;7.70;3.60;;;19.00;75.40;;;;;;5094118;28;20803;-70
2022/06/12 02:40:58;;;;;;;8.03;3.90;;;18.90;75.50;;;;;;5093878;28;20420;-70
2022/06/12 02:43:30;;;;;;;6.83;3.80;;;18.90;75.40;;;;;;5095174;28;20428;-70
2022/06/12 02:46:02;;;;;;;7.13;4.53;;;18.80;75.40;;;;;;5096189;28;20428;-70
2022/06/12 02:48:30;;;;;;;6.07;4.10;;;18.70;76.40;;;;;;5095466;28;20428;-70
2022/06/12 02:51:06;;;;;;;6.63;3.80;;;18.70;76.60;;;;;;5093237;28;20518;-70
2022/06/12 02:53:48;;;;;;;10.23;4.20;;;18.60;75.60;;;;;;5093343;28;20912;-70
2022/06/12 02:56:26;;;;;;;11.27;4.90;;;18.50;76.10;;;;;;5093682;28;20432;-70
2022/06/12 02:58:59;;;;;;;12.63;5.00;;;18.40;76.80;;;;;;5093569;28;20431;-70
2022/06/12 03:01:35;;;;;;;9.77;4.50;;;18.30;77.40;;;;;;5093537;28;20468;-70
2022/06/12 03:04:08;;;;;;;8.97;4.80;;;18.20;78.20;;;;;;5093551;28;20436;-69
2022/06/12 03:06:37;;;;;;;7.90;4.00;;;18.20;78.30;;;;;;5093523;28;20432;-70
2022/06/12 03:09:06;;;;;;;6.90;4.10;;;18.20;78.50;;;;;;5093365;28;20439;-70
2022/06/12 03:11:36;;;;;;;9.70;4.13;;;18.20;78.50;;;;;;5093044;28;20972;-70
2022/06/12 03:14:08;;;;;;;5.90;3.57;;;18.20;78.50;;;;;;5093435;28;20826;-70
2022/06/12 03:16:40;;;;;;;6.97;3.60;;;18.20;78.50;;;;;;5093453;28;20436;-72
2022/06/12 03:19:11;;;;;;;6.43;3.50;;;18.20;78.60;;;;;;5093383;28;20436;-72
2022/06/12 03:21:41;;;;;;;7.40;3.63;;;18.20;78.60;;;;;;5093111;28;20478;-72
2022/06/12 03:24:23;;;;;;;11.20;4.57;;;18.10;78.50;;;;;;5093270;28;20448;-72
2022/06/12 03:26:58;;;;;;;12.50;3.80;;;18.20;79.00;;;;;;5093014;28;20928;-69
2022/06/12 03:29:35;;;;;;;9.17;4.50;;;18.20;79.20;;;;;;5093217;28;20467;-69
2022/06/12 03:32:14;;;;;;;5.27;4.00;;;18.10;79.30;;;;;;5093199;28;20467;-69
2022/06/12 03:34:48;;;;;;;8.37;4.23;;;18.20;79.70;;;;;;5092911;28;20470;-70
2022/06/12 03:37:23;;;;;;;6.83;3.83;;;18.10;79.90;;;;;;5097071;28;20420;-71
2022/06/12 03:39:58;;;;;;;11.97;4.13;;;18.10;80.20;;;;;;5096932;28;20894;-71
2022/06/12 03:42:33;;;;;;;7.03;4.13;;;18.10;80.10;;;;;;5096636;28;20927;-71
2022/06/12 03:45:06;;;;;;;8.97;4.33;;;18.10;80.20;;;;;;5097063;28;20435;-70
2022/06/12 03:47:40;;;;;;;9.20;4.17;;;18.00;80.40;;;;;;5096669;28;20434;-69
2022/06/12 03:50:14;;;;;;;10.77;3.90;;;18.00;80.80;;;;;;5096918;28;20467;-69
2022/06/12 03:52:50;;;;;;;11.67;4.80;;;18.00;81.50;;;;;;5096778;28;20477;-69
2022/06/12 03:57:50;;;;;;;14.50;5.37;;;18.00;81.60;;;;;;5097026;28;20471;-69
2022/06/12 03:58:16;;;;;;;7.77;4.30;;;17.90;81.60;;;;;;5096321;28;20901;-69
2022/06/12 04:00:45;;;;;;;9.80;4.00;;;17.80;82.50;;;;;;5096982;28;20477;-69
2022/06/12 04:03:16;;;;;;;12.57;3.83;;;17.80;83.00;;;;;;5096453;28;20448;-69
2022/06/12 04:05:47;;;;;;;8.80;4.57;;;17.80;83.30;;;;;;5096858;28;20432;-69
2022/06/12 04:08:18;;;;;;;7.73;4.33;;;17.80;83.60;;;;;;5096508;28;20931;-69
2022/06/12 04:10:45;;;;;;;10.23;4.90;;;17.90;83.80;;;;;;5096508;28;20830;-70
2022/06/12 04:13:15;;;;;;;8.40;3.60;;;17.90;83.40;;;;;;5096916;28;20494;-69
2022/06/12 04:15:48;;;;;;;7.03;3.53;;;17.90;83.20;;;;;;5097116;28;20524;-69
2022/06/12 04:18:17;;;;;;;5.90;3.40;;;18.00;83.30;;;;;;5096849;28;20432;-69
2022/06/12 04:20:54;;;;;;;8.87;3.60;;;18.00;83.00;;;;;;5097299;28;20442;-69
2022/06/12 04:23:27;;;;;;;5.77;4.23;;;18.10;83.00;;;;;;5097310;28;20472;-69
2022/06/12 04:25:57;;;;;;;8.43;4.40;;;18.10;83.30;;;;;;5096138;28;20931;-71
2022/06/12 04:28:31;;;;;;;8.70;4.20;;;18.10;83.50;;;;;;5097593;28;20447;-70
2022/06/12 04:30:59;;;;;;;11.00;5.50;;;18.10;83.90;;;;;;5095673;28;20491;-70
2022/06/12 04:33:36;;;;;;;6.80;3.87;;;18.20;84.00;;;;;;5095811;28;20440;-70
2022/06/12 04:36:05;;;;;;;13.93;4.57;;;18.20;84.40;;;;;;5095646;28;20830;-70
2022/06/12 04:38:34;;;;;;;8.80;4.40;;;18.20;84.60;;;;;;5095532;28;20444;-70
2022/06/12 04:41:02;;;;;;;10.03;4.47;;;18.30;84.90;;;;;;5095553;28;20459;-70
2022/06/12 04:43:29;;;;;;;10.07;5.17;;;18.30;85.00;;;;;;5095825;28;20443;-70
2022/06/12 04:45:56;;;;;;;9.23;4.53;;;18.30;84.90;;;;;;5095220;28;20472;-70
2022/06/12 04:48:28;;;;;;;8.70;4.70;;;18.30;85.10;;;;;;5095348;28;20448;-70
2022/06/12 04:50:56;;;;;;;10.10;4.53;;;18.40;85.80;;;;;;5095533;28;20463;-70
2022/06/12 04:53:23;;;;;;;9.90;4.40;;;18.40;85.70;;;;;;5095543;28;20439;-70
2022/06/12 04:55:50;;;;;;;9.30;4.57;;;18.50;85.90;;;;;;5095537;28;20447;-70
2022/06/12 04:58:16;;;;;;;9.80;4.80;;;18.50;86.20;;;;;;5095596;28;20450;-70
2022/06/12 05:00:43;;;;;;;12.63;6.07;;;18.60;86.40;;;;;;5095485;28;20478;-70
2022/06/12 05:03:12;;;;;;;12.57;5.57;;;18.60;86.30;;;;;;5095404;28;20444;-70
2022/06/12 05:05:39;;;;;;;14.43;5.90;;;18.70;86.60;;;;;;5095343;28;20458;-69
2022/06/12 05:08:08;;;;;;;13.50;5.70;;;18.70;86.80;;;;;;5095296;28;20448;-69
2022/06/12 05:10:35;;;;;;;14.53;5.30;;;18.80;87.50;;;;;;5094933;28;20520;-69
2022/06/12 05:13:02;;;;;;;14.23;5.80;;;18.80;87.60;;;;;;5095283;28;20444;-69
2022/06/12 05:15:29;;;;;;;9.40;4.87;;;18.80;87.90;;;;;;5094874;28;20454;-69
2022/06/12 05:17:56;;;;;;;23.23;6.33;;;18.80;88.20;;;;;;5094856;28;20800;-69
2022/06/12 05:20:26;;;;;;;15.10;6.00;;;18.70;87.60;;;;;;5095400;28;20447;-69
2022/06/12 05:22:53;;;;;;;14.27;6.47;;;18.70;88.40;;;;;;5096063;28;20472;-69
2022/06/12 05:25:23;;;;;;;13.17;5.20;;;18.60;88.40;;;;;;5096494;28;20447;-69
2022/06/12 05:27:50;;;;;;;10.57;4.90;;;18.60;88.30;;;;;;5097343;28;20799;-69
2022/06/12 05:30:20;;;;;;;11.67;5.13;;;18.60;88.60;;;;;;5094785;28;20482;-69
2022/06/12 05:32:50;;;;;;;13.50;5.03;;;18.60;88.30;;;;;;5094749;28;20455;-69
2022/06/12 05:35:18;;;;;;;11.97;5.20;;;18.60;88.00;;;;;;5094412;28;20467;-69
2022/06/12 05:37:46;;;;;;;11.00;4.97;;;18.60;87.80;;;;;;5094775;28;20444;-69
2022/06/12 05:40:16;;;;;;;9.23;5.07;;;18.60;87.20;;;;;;5094375;28;20780;-69
2022/06/12 05:42:45;;;;;;;17.97;5.80;;;18.70;87.80;;;;;;5094291;28;20471;-69
2022/06/12 05:45:14;;;;;;;9.40;5.03;;;18.60;86.30;;;;;;5094380;28;20945;-69
2022/06/12 05:47:45;;;;;;;13.07;6.30;;;18.60;86.50;;;;;;5094552;28;20451;-69
2022/06/12 05:50:13;;;;;;;12.90;4.90;;;18.60;86.70;;;;;;5094423;28;20478;-69
2022/06/12 05:52:39;;;;;;;13.13;4.93;;;18.60;85.50;;;;;;5094380;28;20463;-69
2022/06/12 05:55:07;;;;;;;9.50;4.50;;;18.60;84.70;;;;;;5094152;28;20936;-69
2022/06/12 05:57:34;;;;;;;11.50;5.10;;;18.50;84.70;;;;;;5093503;28;20935;-69
2022/06/12 06:00:04;;;;;;;13.83;5.90;;;18.40;85.10;;;;;;5094064;28;20463;-69
2022/06/12 06:02:31;;;;;;;9.63;4.67;;;18.50;86.90;;;;;;5094227;28;20467;-69
2022/06/12 06:04:57;;;;;;;7.50;3.53;;;18.50;86.20;;;;;;5094271;28;20450;-69
2022/06/12 06:07:24;;;;;;;9.53;3.67;;;18.50;84.80;;;;;;5094238;28;20447;-69
2022/06/12 06:09:51;;;;;;;7.57;3.70;;;18.50;83.80;;;;;;5094156;28;20439;-69
2022/06/12 06:12:18;;;;;;;8.53;3.60;;;18.50;83.20;;;;;;5094067;28;20464;-69
2022/06/12 06:14:45;;;;;;;8.13;4.07;;;18.60;83.20;;;;;;5094185;28;20869;-69
2022/06/12 06:17:13;;;;;;;8.10;2.90;;;18.70;83.60;;;;;;5093984;28;20447;-69
2022/06/12 06:19:40;;;;;;;4.30;3.20;;;18.70;82.90;;;;;;5093985;28;20447;-69
2022/06/12 06:22:06;;;;;;;12.20;3.37;;;18.70;82.30;;;;;;5093391;28;20976;-69
2022/06/12 06:24:33;;;;;;;5.50;3.07;;;18.70;82.10;;;;;;5093690;28;20819;-69
2022/06/12 06:27:00;;;;;;;7.83;3.70;;;18.80;81.50;;;;;;5093873;28;20455;-69
2022/06/12 06:29:27;;;;;;;8.60;4.10;;;18.80;80.90;;;;;;5094088;28;20454;-69
2022/06/12 06:31:54;;;;;;;6.73;3.70;;;18.90;82.00;;;;;;5093835;28;20491;-69
2022/06/12 06:34:22;;;;;;;8.67;4.63;;;18.90;79.20;;;;;;5093609;28;20561;-68
2022/06/12 06:36:49;;;;;;;7.57;3.60;;;18.90;79.90;;;;;;5093795;28;20444;-69
2022/06/12 06:39:16;;;;;;;12.63;4.13;;;19.00;80.50;;;;;;5093478;28;20535;-69
2022/06/12 06:41:42;;;;;;;9.10;3.00;;;19.10;79.20;;;;;;5093314;28;20472;-69
2022/06/12 06:46:53;;;;;;;5.13;2.90;;;19.30;78.70;;;;;;5093745;28;20469;-69
2022/06/12 06:49:22;;;;;;;7.03;2.90;;;19.40;77.90;;;;;;5093630;28;20450;-69
2022/06/12 06:51:50;;;;;;;6.80;3.23;;;19.50;76.80;;;;;;5093044;28;21027;-69
2022/06/12 06:54:17;;;;;;;11.67;3.00;;;19.60;74.80;;;;;;5093353;28;20475;-72
2022/06/12 06:56:44;;;;;;;6.47;2.83;;;19.70;73.80;;;;;;5093531;28;20932;-70
2022/06/12 06:59:11;;;;;;;6.83;2.87;;;19.70;73.80;;;;;;5093571;28;20446;-71
2022/06/12 07:01:38;;;;;;;5.77;2.50;;;19.90;75.90;;;;;;5093174;28;20484;-70
2022/06/12 07:04:05;;;;;;;3.60;2.20;;;19.90;70.90;;;;;;5093563;28;20444;-70
2022/06/12 07:06:34;;;;;;;4.03;1.77;;;20.00;71.90;;;;;;5093560;28;20448;-70
2022/06/12 07:09:01;;;;;;;7.00;2.20;;;20.10;70.70;;;;;;5093738;28;20451;-70
2022/06/12 07:11:28;;;;;;;5.23;2.23;;;20.30;71.30;;;;;;5097476;28;20483;-70
2022/06/12 07:13:56;;;;;;;3.33;1.50;;;20.40;69.50;;;;;;5097620;28;20442;-70
2022/06/12 07:16:24;;;;;;;5.50;1.93;;;20.50;68.40;;;;;;5097468;28;20447;-70
2022/06/12 07:18:51;;;;;;;5.60;1.93;;;20.60;68.30;;;;;;5097584;28;20447;-70
2022/06/12 07:21:18;;;;;;;6.00;1.90;;;20.70;64.90;;;;;;5097424;28;20460;-70
2022/06/12 07:23:46;;;;;;;7.47;2.00;;;20.80;66.70;;;;;;5097275;28;20447;-70
2022/06/12 07:26:19;;;;;;;6.47;1.73;;;20.90;65.60;;;;;;5097035;28;20448;-70
2022/06/12 07:28:46;;;;;;;4.83;1.73;;;20.90;63.60;;;;;;5097017;28;20913;-70
2022/06/12 07:31:13;;;;;;;7.93;2.00;;;21.00;61.90;;;;;;5097223;28;20475;-70
2022/06/12 07:33:40;;;;;;;5.47;1.70;;;21.10;63.40;;;;;;5097467;28;20462;-70
2022/06/12 07:36:08;;;;;;;4.53;1.47;;;21.30;62.60;;;;;;5097347;28;20443;-71
2022/06/12 07:38:35;;;;;;;6.13;2.10;;;21.40;62.60;;;;;;5097207;28;20929;-69
2022/06/12 07:41:05;;;;;;;4.47;1.90;;;21.40;59.70;;;;;;5097355;28;20486;-69
2022/06/12 07:43:34;;;;;;;3.37;2.13;;;21.60;62.00;;;;;;5097878;28;20451;-69
2022/06/12 07:46:03;;;;;;;4.90;2.17;;;21.80;61.70;;;;;;5097709;28;20446;-69
2022/06/12 07:48:31;;;;;;;4.87;1.77;;;22.00;60.20;;;;;;5098066;28;20447;-69
2022/06/12 07:50:59;;;;;;;3.57;1.27;;;22.10;58.60;;;;;;5097969;28;20475;-70
2022/06/12 07:53:27;;;;;;;7.23;2.00;;;22.20;58.10;;;;;;5097659;28;20440;-70
2022/06/12 07:55:55;;;;;;;3.93;1.40;;;22.40;57.40;;;;;;5097817;28;20450;-69
2022/06/12 07:58:24;;;;;;;5.50;2.20;;;22.60;57.00;;;;;;5096541;28;20456;-70
2022/06/12 08:00:51;;;;;;;4.70;1.80;;;22.60;56.40;;;;;;5096742;28;20850;-70
2022/06/12 08:03:18;;;;;;;6.60;1.50;;;22.80;56.30;;;;;;5097682;28;20451;-69
2022/06/12 08:05:44;;;;;;;5.67;1.70;;;22.80;56.30;;;;;;5098590;28;20443;-69
2022/06/12 08:08:11;;;;;;;5.50;2.67;;;23.00;59.30;;;;;;5097413;28;20824;-69
2022/06/12 08:10:38;;;;;;;5.53;1.60;;;23.20;57.10;;;;;;5096295;28;20475;-69
2022/06/12 08:13:11;;;;;;;5.00;1.80;;;23.50;54.20;;;;;;5096473;28;20519;-69
2022/06/12 08:15:47;;;;;;;6.47;2.07;;;23.40;54.20;;;;;;5096298;28;20463;-69
2022/06/12 08:18:15;;;;;;;3.23;1.33;;;23.20;53.80;;;;;;5096167;28;20554;-68
2022/06/12 08:20:51;;;;;;;2.50;1.37;;;23.20;55.00;;;;;;5095412;28;20444;-68
2022/06/12 08:23:28;;;;;;;3.90;1.60;;;23.20;54.90;;;;;;5095966;28;20929;-68
2022/06/12 08:25:56;;;;;;;3.50;1.80;;;23.20;55.80;;;;;;5095920;28;20897;-68
2022/06/12 08:28:24;;;;;;;4.70;1.53;;;23.30;56.10;;;;;;5095857;28;20454;-68
2022/06/12 08:30:52;;;;;;;2.03;1.47;;;23.40;55.00;;;;;;5096039;28;20479;-67
2022/06/12 08:33:19;;;;;;;6.97;1.70;;;23.50;53.80;;;;;;5095927;28;20451;-68
2022/06/12 08:35:47;;;;;;;4.60;1.50;;;23.50;55.90;;;;;;5096035;28;20435;-68
2022/06/12 08:38:13;;;;;;;4.50;1.80;;;23.60;54.00;;;;;;5095940;28;20440;-68
2022/06/12 08:40:49;;;;;;;3.33;1.60;;;23.50;55.10;;;;;;5095726;28;20443;-68
2022/06/12 08:43:23;;;;;;;6.17;1.63;;;23.50;54.30;;;;;;5095814;28;20423;-68
2022/06/12 08:45:55;;;;;;;2.70;1.47;;;23.50;52.10;;;;;;5095853;28;20423;-68
2022/06/12 08:48:27;;;;;;;3.40;1.83;;;23.50;52.50;;;;;;5095447;28;20905;-68
2022/06/12 08:51:02;;;;;;;10.07;1.90;;;23.50;52.20;;;;;;5095225;28;20513;-68
2022/06/12 08:53:35;;;;;;;7.60;2.20;;;23.50;53.90;;;;;;5094985;28;20441;-68
2022/06/12 08:56:07;;;;;;;6.10;1.70;;;23.80;52.80;;;;;;5095611;28;20436;-68
2022/06/12 08:58:39;;;;;;;3.80;1.50;;;23.90;52.80;;;;;;5095318;28;20900;-68
2022/06/12 09:01:07;;;;;;;6.70;1.83;;;24.00;53.30;;;;;;5095248;28;20513;-68
2022/06/12 09:03:38;;;;;;;4.73;1.97;;;24.10;50.60;;;;;;5095132;28;20470;-68
2022/06/12 09:06:14;;;;;;;4.60;1.63;;;24.20;50.10;;;;;;5095461;28;20432;-68
2022/06/12 09:08:47;;;;;;;4.63;1.80;;;24.40;52.10;;;;;;5095182;28;20902;-68
2022/06/12 09:11:18;;;;;;;5.30;2.30;;;24.50;53.00;;;;;;5094984;28;20999;-69
2022/06/12 09:13:54;;;;;;;6.57;1.63;;;24.80;52.60;;;;;;5095178;28;20814;-69
2022/06/12 09:16:28;;;;;;;3.90;1.80;;;24.90;51.90;;;;;;5094984;28;20950;-69
2022/06/12 09:19:02;;;;;;;7.13;2.47;;;25.00;51.60;;;;;;5095200;28;20432;-69
2022/06/12 09:21:41;;;;;;;8.60;2.20;;;25.20;49.80;;;;;;5094701;28;20813;-69
2022/06/12 09:24:18;;;;;;;6.30;1.80;;;25.30;49.80;;;;;;5095138;28;20515;-68
2022/06/12 09:26:54;;;;;;;6.73;2.40;;;25.30;49.40;;;;;;5094761;28;20901;-68
2022/06/12 09:29:29;;;;;;;7.70;2.37;;;25.20;48.30;;;;;;5095107;28;20831;-68
2022/06/12 09:32:06;;;;;;;5.30;2.00;;;25.10;50.50;;;;;;5094825;28;20494;-68
2022/06/12 09:34:42;;;;;;;8.10;2.23;;;25.20;50.90;;;;;;5094793;28;20463;-69
2022/06/12 09:40:21;;;;;;;7.37;1.77;;;25.60;50.30;;;;;;5094873;28;20404;-69
2022/06/12 09:42:58;;;;;;;5.00;1.40;;;26.00;50.40;;;;;;5094761;28;20866;-69
2022/06/12 09:45:29;;;;;;;5.83;2.60;;;26.20;49.80;;;;;;5094639;28;20435;-68
2022/06/12 09:48:09;;;;;;;5.20;1.90;;;26.20;49.20;;;;;;5094669;28;20490;-69
2022/06/12 09:50:46;;;;;;;9.60;2.20;;;26.40;49.70;;;;;;5094594;28;20777;-68
2022/06/12 09:53:36;;;;;;;4.90;1.97;;;26.50;47.00;;;;;;5094645;28;20416;-68
2022/06/12 09:56:08;;;;;;;11.00;2.70;;;26.80;47.90;;;;;;5081797;28;20463;-69
2022/06/12 09:58:43;;;;;;;8.77;2.27;;;26.90;47.90;;;;;;5094168;28;20923;-69
2022/06/12 10:01:16;;;;;;;4.00;1.73;;;27.10;48.10;;;;;;5094291;28;20459;-69
2022/06/12 10:03:48;;;;;;;7.40;2.17;;;27.50;46.40;;;;;;5094323;28;20439;-69
2022/06/12 10:06:22;;;;;;;5.53;2.00;;;27.70;44.30;;;;;;5093964;28;20816;-69
2022/06/12 10:08:52;;;;;;;5.03;1.70;;;27.60;43.40;;;;;;5094342;28;20469;-69
2022/06/12 10:11:23;;;;;;;7.90;2.10;;;27.50;43.60;;;;;;5094178;28;20574;-69
2022/06/12 10:13:54;;;;;;;8.30;2.23;;;27.60;46.00;;;;;;5094213;28;20443;-69
2022/06/12 10:16:24;;;;;;;5.63;2.43;;;27.80;44.40;;;;;;5094170;28;20482;-69
2022/06/12 10:19:00;;;;;;;6.63;2.63;;;28.20;41.60;;;;;;5094103;28;20462;-69
2022/06/12 10:21:29;;;;;;;5.23;2.00;;;28.40;41.50;;;;;;5094063;28;20463;-69
2022/06/12 10:23:55;;;;;;;6.40;2.07;;;28.70;43.60;;;;;;5093730;28;20814;-69
2022/06/12 10:26:25;;;;;;;4.53;2.03;;;28.80;44.00;;;;;;5093927;28;20447;-69
2022/06/12 10:29:03;;;;;;;5.53;1.80;;;29.00;41.40;;;;;;5093932;28;20443;-69
2022/06/12 10:31:33;;;;;;;3.57;1.77;;;29.50;42.20;;;;;;5093873;28;20479;-67
2022/06/12 10:34:16;;;;;;;4.10;2.00;;;30.20;40.50;;;;;;5093712;28;20497;-67
2022/06/12 10:36:44;;;;;;;6.40;2.30;;;30.90;39.60;;;;;;5093927;28;20440;-67
2022/06/12 10:39:15;;;;;;;7.73;2.47;;;31.30;38.20;;;;;;5094170;28;20439;-69
2022/06/12 10:41:46;;;;;;;5.13;2.20;;;31.60;35.40;;;;;;5094885;28;20459;-69
2022/06/12 10:44:32;;;;;;;4.60;2.00;;;31.30;36.30;;;;;;5096382;28;20459;-68
2022/06/12 10:47:16;;;;;;;4.23;2.00;;;31.30;36.10;;;;;;5098007;28;20970;-69
2022/06/12 10:49:44;;;;;;;7.87;2.23;;;31.80;37.10;;;;;;5093755;28;20436;-68
2022/06/12 10:52:17;;;;;;;6.50;2.27;;;32.30;35.90;;;;;;5093484;28;20552;-69
2022/06/12 10:54:44;;;;;;;7.57;2.47;;;32.50;33.80;;;;;;5093463;28;20901;-69
2022/06/12 10:57:23;;;;;;;5.00;2.30;;;32.70;33.50;;;;;;5093806;28;20454;-69
2022/06/12 10:59:56;;;;;;;5.77;2.13;;;32.70;30.00;;;;;;5093531;28;20896;-68
2022/06/12 11:03:01;;;;;;;9.40;2.70;;;32.80;30.90;;;;;;5094024;28;20465;-68
2022/06/12 11:05:54;;;;;;;6.70;2.03;;;33.10;32.40;;;;;;5093876;28;20443;-67
2022/06/12 11:08:33;;;;;;;5.10;2.40;;;33.70;31.30;;;;;;5094274;28;20440;-68
2022/06/12 11:11:06;;;;;;;5.43;2.00;;;34.20;30.30;;;;;;5094460;28;20821;-68
2022/06/12 11:13:56;;;;;;;11.10;3.07;;;34.90;29.00;;;;;;5094734;28;20467;-68
2022/06/12 11:16:35;;;;;;;7.17;2.20;;;35.50;27.90;;;;;;5094593;28;20436;-68
2022/06/12 11:19:21;;;;;;;6.07;2.53;;;35.40;26.60;;;;;;5093963;28;20773;-69
2022/06/12 11:22:00;;;;;;;9.30;2.83;;;35.40;27.30;;;;;;5094264;28;20554;-69
2022/06/12 11:24:31;;;;;;;6.83;2.27;;;35.50;28.50;;;;;;5093136;28;20427;-69
2022/06/12 11:27:35;;;;;;;6.73;2.43;;;35.80;27.80;;;;;;5093121;28;20439;-69
2022/06/12 11:30:21;;;;;;;7.10;2.30;;;35.50;26.90;;;;;;5080036;28;20465;-69
2022/06/12 11:32:57;;;;;;;5.37;2.00;;;35.20;26.90;;;;;;5093244;28;20559;-69
2022/06/12 11:35:41;;;;;;;5.80;2.00;;;34.90;27.90;;;;;;5092935;28;20461;-69
2022/06/12 11:38:31;;;;;;;11.37;2.40;;;35.30;27.50;;;;;;5093357;28;20427;-68
2022/06/12 11:41:05;;;;;;;7.03;2.03;;;35.70;26.50;;;;;;5092909;28;20434;-69
2022/06/12 11:43:35;;;;;;;7.43;2.30;;;35.70;27.40;;;;;;5093500;28;20430;-69
2022/06/12 11:46:24;;;;;;;4.73;1.83;;;36.30;27.30;;;;;;5093319;28;20439;-69
2022/06/12 11:49:09;;;;;;;5.50;2.50;;;36.50;24.50;;;;;;5093048;28;20427;-69
2022/06/12 11:51:47;;;;;;;7.27;2.87;;;36.40;26.00;;;;;;5093516;28;20463;-69
2022/06/12 11:54:34;;;;;;;8.30;2.73;;;36.70;24.90;;;;;;5093385;28;20438;-69
2022/06/12 11:57:10;;;;;;;6.83;2.93;;;35.70;26.00;;;;;;5094959;28;20509;-69
2022/06/12 11:59:48;;;;;;;7.70;2.80;;;34.30;28.20;;;;;;5096571;28;20427;-69
2022/06/12 12:02:22;;;;;;;5.97;2.73;;;33.40;30.30;;;;;;5096677;28;20450;-69
2022/06/12 12:05:14;;;;;;;8.40;3.93;;;33.70;30.00;;;;;;5096540;28;20884;-69
2022/06/12 12:07:53;;;;;;;6.50;3.10;;;34.70;28.30;;;;;;5096687;28;20435;-69
2022/06/12 12:10:45;;;;;;;7.93;4.43;;;35.80;27.70;;;;;;5096594;28;20419;-69
2022/06/12 12:13:15;;;;;;;6.20;4.50;;;36.30;23.30;;;;;;5096442;28;20485;-69
2022/06/12 12:15:48;;;;;;;6.80;5.20;;;36.50;23.60;;;;;;5096545;28;20947;-69
2022/06/12 12:18:22;;;;;;;5.87;2.80;;;36.70;24.80;;;;;;5096381;28;20441;-69
2022/06/12 12:20:50;;;;;;;8.03;5.40;;;36.90;24.90;;;;;;5096087;28;20915;-69
2022/06/12 12:23:23;;;;;;;8.30;5.30;;;37.50;24.30;;;;;;5096319;28;20435;-69
2022/06/12 12:25:56;;;;;;;5.73;3.17;;;37.60;24.00;;;;;;5096385;28;20435;-69
2022/06/12 12:28:31;;;;;;;3.93;2.47;;;38.10;23.70;;;;;;5096043;28;20189;-69
2022/06/12 12:31:01;;;;;;;3.70;1.70;;;37.40;22.30;;;;;;5096300;28;20196;-69
2022/06/12 12:33:30;;;;;;;4.90;2.43;;;36.20;24.70;;;;;;5095607;28;20838;-69
2022/06/12 12:41:44;;;;;;;5.40;2.27;;;36.50;24.80;;;;;;5096035;28;20445;-69
2022/06/12 12:44:13;;;;;;;4.93;2.20;;;37.10;24.50;;;;;;5096004;28;20446;-69
2022/06/12 12:46:47;;;;;;;4.10;2.13;;;37.50;23.30;;;;;;5095875;28;20466;-69
2022/06/12 12:49:22;;;;;;;5.70;2.50;;;38.10;23.70;;;;;;5095781;28;20526;-69
2022/06/12 12:51:49;;;;;;;6.00;3.97;;;38.60;24.00;;;;;;5095599;28;20221;-70
2022/06/12 12:54:18;;;;;;;7.68;3.05;;;39.00;23.20;;;;;;5095378;28;20563;-69
2022/06/12 12:56:55;;;;;;;5.20;2.08;;;39.10;22.60;;;;;;5095319;28;20689;-69
2022/06/12 12:59:23;;;;;;;5.65;2.63;;;39.20;23.30;;;;;;5095577;28;20181;-69
2022/06/12 13:01:51;;;;;;;4.43;2.33;;;39.70;22.20;;;;;;5095643;28;20266;-69
2022/06/12 13:04:21;;;;;;;5.22;2.40;;;40.10;21.10;;;;;;5095623;28;20558;-69
2022/06/12 13:07:01;;;;;;;5.25;2.13;;;40.30;20.40;;;;;;5095089;28;20209;-69
2022/06/12 13:09:45;;;;;;;8.48;2.15;;;39.70;19.40;;;;;;5095193;28;20188;-69
2022/06/12 13:12:30;;;;;;;4.40;1.63;;;39.00;21.60;;;;;;5095101;28;20225;-69
2022/06/12 13:15:18;;;;;;;4.33;2.10;;;37.50;22.80;;;;;;5095580;28;20185;-70
2022/06/12 13:17:53;;;;;;;5.30;2.27;;;36.30;23.30;;;;;;5095441;28;20427;-70
2022/06/12 13:20:45;;;;;;;6.40;2.90;;;35.80;24.90;;;;;;5096007;28;20441;-71
2022/06/12 13:23:27;;;;;;;7.07;2.60;;;35.80;24.10;;;;;;5098083;28;20430;-71
2022/06/12 13:25:56;;;;;;;6.17;3.30;;;35.30;24.40;;;;;;5097694;28;20940;-70
2022/06/12 13:28:27;;;;;;;6.50;2.10;;;34.40;26.00;;;;;;5095424;28;20532;-70